Time,TemperatureF,DewpointF,PressureIn,WindDirection,WindDirectionDegrees,WindSpeedMPH,WindSpeedGustMPH,Humidity,HourlyPrecipIn,Conditions,Clouds,dailyrainin,SolarRadiationWatts/m^2,SoftwareType,DateUTC
2013-01-31 00:01:00,9.5,3.7,29.97,West,261,1.0,12.0,77,0.00,,,0.00,0.0,meteohub,2013-01-31 06:01:00,
2013-01-31 00:07:00,9.1,3.4,29.97,WNW,301,5.0,12.0,77,0.00,,,0.00,0.0,meteohub,2013-01-31 06:07:00,
2013-01-31 00:13:00,9.0,3.2,29.97,NW,323,2.0,12.0,77,0.00,,,0.00,0.0,meteohub,2013-01-31 06:13:00,
2013-01-31 00:19:00,8.8,3.0,29.98,NNW,347,5.0,12.0,77,0.00,,,0.00,0.0,meteohub,2013-01-31 06:19:00,
2013-01-31 00:26:00,8.4,2.7,29.98,NW,320,2.0,18.0,77,0.00,,,0.00,0.0,meteohub,2013-01-31 06:26:00,
2013-01-31 00:32:00,8.2,2.5,29.98,West,265,1.0,18.0,77,0.00,,,0.00,0.0,meteohub,2013-01-31 06:32:00,
2013-01-31 00:38:00,8.1,2.3,29.99,WNW,296,3.0,18.0,77,0.00,,,0.00,0.0,meteohub,2013-01-31 06:38:00,
2013-01-31 00:44:00,7.9,2.1,29.99,NW,313,3.0,18.0,77,0.00,,,0.00,0.0,meteohub,2013-01-31 06:44:00,
2013-01-31 00:51:00,7.7,1.9,30.00,NW,321,3.0,16.0,77,0.00,,,0.00,0.0,meteohub,2013-01-31 06:51:00,
2013-01-31 00:57:00,7.7,1.9,30.00,NE,44,2.0,16.0,77,0.00,,,0.00,0.0,meteohub,2013-01-31 06:57:00,
2013-01-31 01:03:00,7.5,2.1,30.00,WSW,250,3.0,16.0,78,0.00,,,0.00,0.0,meteohub,2013-01-31 07:03:00,
2013-01-31 01:09:00,7.5,2.1,30.00,WNW,296,5.0,16.0,78,0.00,,,0.00,0.0,meteohub,2013-01-31 07:09:00,
2013-01-31 01:16:00,7.3,1.9,30.01,NW,308,6.0,16.0,78,0.00,,,0.00,0.0,meteohub,2013-01-31 07:16:00,
2013-01-31 01:22:00,7.3,1.9,30.00,NNE,30,6.0,10.0,78,0.00,,,0.00,0.0,meteohub,2013-01-31 07:22:00,
2013-01-31 01:28:00,7.2,1.8,30.01,SW,228,8.0,10.0,78,0.00,,,0.00,0.0,meteohub,2013-01-31 07:28:00,
2013-01-31 01:34:00,7.2,1.8,30.01,NW,320,3.0,10.0,78,0.00,,,0.00,0.0,meteohub,2013-01-31 07:34:00,
2013-01-31 01:40:00,7.2,1.8,30.01,North,355,1.0,10.0,78,0.00,,,0.00,0.0,meteohub,2013-01-31 07:40:00,
2013-01-31 01:47:00,7.2,1.8,30.01,NNE,19,2.0,13.0,78,0.00,,,0.00,0.0,meteohub,2013-01-31 07:47:00,
2013-01-31 01:53:00,7.2,1.8,30.02,NW,319,2.0,13.0,78,0.00,,,0.00,0.0,meteohub,2013-01-31 07:53:00,
2013-01-31 01:59:00,7.2,1.9,30.02,NW,306,1.0,13.0,79,0.00,,,0.00,0.0,meteohub,2013-01-31 07:59:00,
2013-01-31 02:05:00,7.2,1.9,30.02,North,355,4.0,13.0,79,0.00,,,0.00,0.0,meteohub,2013-01-31 08:05:00,
2013-01-31 02:11:00,7.2,1.9,30.02,WSW,250,4.0,10.0,79,0.00,,,0.00,0.0,meteohub,2013-01-31 08:11:00,
2013-01-31 02:17:00,7.2,1.9,30.02,NNE,30,4.0,10.0,79,0.00,,,0.00,0.0,meteohub,2013-01-31 08:17:00,
2013-01-31 02:22:00,7.2,1.9,30.02,NW,315,9.0,10.0,79,0.00,,,0.00,0.0,meteohub,2013-01-31 08:22:00,
2013-01-31 02:28:00,7.2,1.9,30.02,NNW,329,3.0,11.0,79,0.00,,,0.00,0.0,meteohub,2013-01-31 08:28:00,
2013-01-31 02:34:00,7.2,2.3,30.03,NW,311,3.0,11.0,80,0.00,,,0.00,0.0,meteohub,2013-01-31 08:34:00,
2013-01-31 02:40:00,7.2,2.3,30.03,North,5,3.0,11.0,80,0.00,,,0.00,0.0,meteohub,2013-01-31 08:40:00,
2013-01-31 02:46:00,7.2,2.3,30.03,NW,321,1.0,9.0,80,0.00,,,0.00,0.0,meteohub,2013-01-31 08:46:00,
2013-01-31 02:53:00,7.0,2.1,30.03,WSW,250,5.0,9.0,80,0.00,,,0.00,0.0,meteohub,2013-01-31 08:53:00,
2013-01-31 02:59:00,6.8,1.8,30.03,NW,305,5.0,9.0,79,0.00,,,0.00,0.0,meteohub,2013-01-31 08:59:00,
2013-01-31 03:05:00,6.6,1.6,30.03,NW,325,5.0,9.0,79,0.00,,,0.00,0.0,meteohub,2013-01-31 09:05:00,
2013-01-31 03:11:00,6.6,1.6,30.03,NW,305,7.0,13.0,79,0.00,,,0.00,0.0,meteohub,2013-01-31 09:11:00,
2013-01-31 03:17:00,6.6,1.6,30.03,NNW,336,7.0,13.0,79,0.00,,,0.00,0.0,meteohub,2013-01-31 09:17:00,
2013-01-31 03:23:00,6.4,1.4,30.03,West,268,1.0,13.0,79,0.00,,,0.00,0.0,meteohub,2013-01-31 09:23:00,
2013-01-31 03:30:00,6.4,1.0,30.03,NNW,335,3.0,17.0,78,0.00,,,0.00,0.0,meteohub,2013-01-31 09:30:00,
2013-01-31 03:36:00,6.3,0.9,30.03,NNW,344,6.0,17.0,78,0.00,,,0.00,0.0,meteohub,2013-01-31 09:36:00,
2013-01-31 03:42:00,6.1,0.7,30.03,NNE,24,6.0,17.0,78,0.00,,,0.00,0.0,meteohub,2013-01-31 09:42:00,
2013-01-31 03:48:00,5.7,0.1,30.04,NNW,346,5.0,13.0,77,0.00,,,0.00,0.0,meteohub,2013-01-31 09:48:00,
2013-01-31 03:54:00,5.7,0.1,30.04,SW,223,3.0,13.0,77,0.00,,,0.00,0.0,meteohub,2013-01-31 09:54:00,
2013-01-31 04:01:00,5.5,0.0,30.04,NNW,346,3.0,13.0,77,0.00,,,0.00,0.0,meteohub,2013-01-31 10:01:00,
2013-01-31 04:07:00,5.5,0.1,30.05,WNW,292,1.0,16.0,78,0.00,,,0.00,0.0,meteohub,2013-01-31 10:07:00,
2013-01-31 04:13:00,5.5,0.1,30.05,West,277,1.0,16.0,78,0.00,,,0.00,0.0,meteohub,2013-01-31 10:13:00,
2013-01-31 04:19:00,5.5,0.1,30.05,NNW,330,3.0,16.0,78,0.00,,,0.00,0.0,meteohub,2013-01-31 10:19:00,
2013-01-31 04:25:00,5.5,0.1,30.05,WSW,257,1.0,12.0,78,0.00,,,0.00,0.0,meteohub,2013-01-31 10:25:00,
2013-01-31 04:31:00,5.4,-0.2,30.06,NW,315,2.0,12.0,77,0.00,,,0.00,0.0,meteohub,2013-01-31 10:31:00,
2013-01-31 04:38:00,5.4,-0.2,30.06,NNW,338,2.0,12.0,77,0.00,,,0.00,0.0,meteohub,2013-01-31 10:38:00,
2013-01-31 04:44:00,5.4,-0.2,30.06,WNW,290,1.0,12.0,77,0.00,,,0.00,0.0,meteohub,2013-01-31 10:44:00,
2013-01-31 04:50:00,5.2,-0.4,30.06,SE,135,2.0,12.0,77,0.00,,,0.00,0.0,meteohub,2013-01-31 10:50:00,
2013-01-31 04:56:00,5.4,-0.2,30.07,NW,311,9.0,12.0,77,0.00,,,0.00,0.0,meteohub,2013-01-31 10:56:00,
2013-01-31 05:02:00,5.2,-0.2,30.07,West,272,3.0,12.0,78,0.00,,,0.00,0.0,meteohub,2013-01-31 11:02:00,
2013-01-31 05:07:00,5.2,-0.4,30.07,NNE,25,5.0,12.0,77,0.00,,,0.00,0.0,meteohub,2013-01-31 11:07:00,
2013-01-31 05:13:00,5.0,-0.6,30.08,West,281,1.0,12.0,77,0.00,,,0.00,0.0,meteohub,2013-01-31 11:13:00,
2013-01-31 05:19:00,5.0,-0.4,30.08,West,280,2.0,11.0,78,0.00,,,0.00,0.0,meteohub,2013-01-31 11:19:00,
2013-01-31 05:25:00,4.8,-0.8,30.08,NW,320,1.0,11.0,77,0.00,,,0.00,0.0,meteohub,2013-01-31 11:25:00,
2013-01-31 05:32:00,4.8,-0.6,30.08,NNW,342,2.0,11.0,78,0.00,,,0.00,0.0,meteohub,2013-01-31 11:32:00,
2013-01-31 05:38:00,4.8,-0.6,30.08,NW,319,5.0,11.0,78,0.00,,,0.00,0.0,meteohub,2013-01-31 11:38:00,
2013-01-31 05:44:00,4.8,-0.6,30.08,WNW,288,3.0,11.0,78,0.00,,,0.00,0.0,meteohub,2013-01-31 11:44:00,
2013-01-31 05:50:00,4.6,-0.8,30.09,NNW,336,4.0,11.0,78,0.00,,,0.00,0.0,meteohub,2013-01-31 11:50:00,
2013-01-31 05:56:00,4.6,-0.8,30.09,NNE,17,2.0,11.0,78,0.00,,,0.00,0.0,meteohub,2013-01-31 11:56:00,
2013-01-31 06:02:00,4.6,-0.4,30.09,NNW,331,4.0,11.0,79,0.00,,,0.00,0.0,meteohub,2013-01-31 12:02:00,
2013-01-31 06:07:00,4.6,-0.4,30.09,NNW,335,3.0,11.0,79,0.00,,,0.00,0.0,meteohub,2013-01-31 12:07:00,
2013-01-31 06:13:00,4.6,-0.4,30.09,WNW,288,4.0,11.0,79,0.00,,,0.00,0.0,meteohub,2013-01-31 12:13:00,
2013-01-31 06:19:00,4.6,-0.2,30.10,NW,311,2.0,11.0,80,0.00,,,0.00,0.0,meteohub,2013-01-31 12:19:00,
2013-01-31 06:26:00,4.5,-0.6,30.10,WSW,251,1.0,16.0,79,0.00,,,0.00,0.0,meteohub,2013-01-31 12:26:00,
2013-01-31 06:32:00,4.5,-0.6,30.11,North,0,4.0,16.0,79,0.00,,,0.00,0.0,meteohub,2013-01-31 12:32:00,
2013-01-31 06:38:00,4.5,-0.4,30.12,WNW,289,2.0,16.0,80,0.00,,,0.00,0.0,meteohub,2013-01-31 12:38:00,
2013-01-31 06:44:00,4.3,-0.6,30.12,WNW,286,2.0,16.0,80,0.00,,,0.00,0.0,meteohub,2013-01-31 12:44:00,
2013-01-31 06:51:00,4.3,-0.8,30.12,NW,321,12.0,16.0,79,0.00,,,0.00,0.0,meteohub,2013-01-31 12:51:00,
2013-01-31 06:57:00,3.9,-1.1,30.12,NW,319,2.0,16.0,79,0.00,,,0.00,0.0,meteohub,2013-01-31 12:57:00,
2013-01-31 07:03:00,3.9,-1.1,30.13,NNW,336,5.0,14.0,79,0.00,,,0.00,0.0,meteohub,2013-01-31 13:03:00,
2013-01-31 07:09:00,3.7,-1.3,30.12,NW,311,5.0,14.0,79,0.00,,,0.00,0.0,meteohub,2013-01-31 13:09:00,
2013-01-31 07:16:00,3.7,-1.3,30.13,WNW,300,3.0,14.0,79,0.00,,,0.00,0.0,meteohub,2013-01-31 13:16:00,
2013-01-31 07:22:00,3.7,-1.3,30.14,SSE,157,1.0,14.0,79,0.00,,,0.00,0.0,meteohub,2013-01-31 13:22:00,
2013-01-31 07:28:00,3.6,-1.5,30.14,NNW,327,7.0,14.0,79,0.00,,,0.00,0.0,meteohub,2013-01-31 13:28:00,
2013-01-31 07:34:00,3.4,-1.7,30.14,WNW,299,2.0,14.0,79,0.00,,,0.00,5.0,meteohub,2013-01-31 13:34:00,
2013-01-31 07:41:00,3.2,-2.0,30.14,NW,324,3.0,16.0,78,0.00,,,0.00,7.0,meteohub,2013-01-31 13:41:00,
2013-01-31 07:47:00,3.2,-1.8,30.15,NNW,347,3.0,16.0,79,0.00,,,0.00,9.0,meteohub,2013-01-31 13:47:00,
2013-01-31 07:53:00,3.0,-2.2,30.15,NW,317,5.0,16.0,78,0.00,,,0.00,14.0,meteohub,2013-01-31 13:53:00,
2013-01-31 07:59:00,3.0,-2.0,30.16,NNE,15,5.0,16.0,79,0.00,,,0.00,19.0,meteohub,2013-01-31 13:59:00,
2013-01-31 08:05:00,2.8,-2.4,30.16,West,265,3.0,16.0,78,0.00,,,0.00,26.0,meteohub,2013-01-31 14:05:00,
2013-01-31 08:12:00,2.7,-2.6,30.17,West,267,2.0,14.0,78,0.00,,,0.00,40.0,meteohub,2013-01-31 14:12:00,
2013-01-31 08:17:00,2.7,-2.4,30.17,West,270,5.0,14.0,79,0.00,,,0.00,49.0,meteohub,2013-01-31 14:17:00,
2013-01-31 08:22:00,2.7,-2.6,30.17,WNW,290,6.0,14.0,78,0.00,,,0.00,65.0,meteohub,2013-01-31 14:22:00,
2013-01-31 08:28:00,2.7,-2.6,30.17,North,0,9.0,10.0,78,0.00,,,0.00,76.0,meteohub,2013-01-31 14:28:00,
2013-01-31 08:34:00,2.7,-3.1,30.18,NW,317,3.0,10.0,76,0.00,,,0.00,91.0,meteohub,2013-01-31 14:34:00,
2013-01-31 08:40:00,2.7,-3.1,30.18,NNE,16,5.0,10.0,76,0.00,,,0.00,111.0,meteohub,2013-01-31 14:40:00,
2013-01-31 08:47:00,2.7,-3.1,30.19,WSW,257,13.0,15.0,76,0.00,,,0.00,134.0,meteohub,2013-01-31 14:47:00,
2013-01-31 08:53:00,2.8,-2.9,30.19,NW,306,2.0,15.0,76,0.00,,,0.00,137.0,meteohub,2013-01-31 14:53:00,
2013-01-31 08:59:00,2.8,-2.9,30.19,North,5,7.0,15.0,76,0.00,,,0.00,149.0,meteohub,2013-01-31 14:59:00,
2013-01-31 09:05:00,2.7,-3.1,30.19,WNW,294,3.0,15.0,76,0.00,,,0.00,155.0,meteohub,2013-01-31 15:05:00,
2013-01-31 09:11:00,2.8,-2.9,30.19,WNW,284,7.0,15.0,76,0.00,,,0.00,158.0,meteohub,2013-01-31 15:11:00,
2013-01-31 09:17:00,2.8,-3.3,30.20,NNW,345,6.0,15.0,75,0.00,,,0.00,151.0,meteohub,2013-01-31 15:17:00,
2013-01-31 09:22:00,2.7,-3.8,30.21,NNW,342,4.0,15.0,74,0.00,,,0.00,165.0,meteohub,2013-01-31 15:22:00,
2013-01-31 09:28:00,2.8,-3.6,30.21,West,281,9.0,15.0,74,0.00,,,0.00,160.0,meteohub,2013-01-31 15:28:00,
2013-01-31 09:34:00,3.0,-3.1,30.22,North,5,6.0,15.0,75,0.00,,,0.00,172.0,meteohub,2013-01-31 15:34:00,
2013-01-31 09:40:00,3.0,-2.7,30.22,NW,307,7.0,15.0,76,0.00,,,0.00,172.0,meteohub,2013-01-31 15:40:00,
2013-01-31 09:47:00,2.8,-2.9,30.22,NW,326,4.0,11.0,76,0.00,,,0.00,172.0,meteohub,2013-01-31 15:47:00,
2013-01-31 09:53:00,2.8,-3.3,30.23,NW,323,8.0,11.0,75,0.00,,,0.00,176.0,meteohub,2013-01-31 15:53:00,
2013-01-31 09:59:00,2.7,-3.5,30.24,WSW,240,1.0,11.0,75,0.00,,,0.00,181.0,meteohub,2013-01-31 15:59:00,
2013-01-31 10:05:00,2.5,-3.6,30.24,NW,325,3.0,11.0,75,0.00,,,0.00,192.0,meteohub,2013-01-31 16:05:00,
2013-01-31 10:11:00,2.7,-3.1,30.24,NNW,343,5.0,15.0,76,0.00,,,0.00,214.0,meteohub,2013-01-31 16:11:00,
2013-01-31 10:17:00,2.7,-3.8,30.25,North,5,4.0,15.0,74,0.00,,,0.00,207.0,meteohub,2013-01-31 16:17:00,
2013-01-31 10:22:00,2.7,-3.8,30.25,NNE,18,2.0,15.0,74,0.00,,,0.00,202.0,meteohub,2013-01-31 16:22:00,
2013-01-31 10:28:00,2.7,-4.0,30.25,NW,323,2.0,15.0,73,0.00,,,0.00,216.0,meteohub,2013-01-31 16:28:00,
2013-01-31 10:34:00,2.7,-4.0,30.26,NNW,329,4.0,15.0,73,0.00,,,0.00,230.0,meteohub,2013-01-31 16:34:00,
2013-01-31 10:40:00,3.0,-3.1,30.26,NW,318,3.0,15.0,75,0.00,,,0.00,262.0,meteohub,2013-01-31 16:40:00,
2013-01-31 10:46:00,3.4,-2.7,30.26,NNE,14,5.0,12.0,75,0.00,,,0.00,265.0,meteohub,2013-01-31 16:46:00,
2013-01-31 10:52:00,3.2,-3.5,30.26,NW,311,1.0,12.0,73,0.00,,,0.00,251.0,meteohub,2013-01-31 16:52:00,
2013-01-31 10:59:00,3.0,-4.0,30.27,WNW,297,7.0,12.0,72,0.00,,,0.00,236.0,meteohub,2013-01-31 16:59:00,
2013-01-31 11:05:00,3.4,-3.1,30.27,NW,319,3.0,12.0,74,0.00,,,0.00,232.0,meteohub,2013-01-31 17:05:00,
2013-01-31 11:11:00,3.2,-3.5,30.27,West,281,6.0,12.0,73,0.00,,,0.00,248.0,meteohub,2013-01-31 17:11:00,
2013-01-31 11:17:00,3.2,-3.3,30.27,NW,311,5.0,12.0,74,0.00,,,0.00,292.0,meteohub,2013-01-31 17:17:00,
2013-01-31 11:24:00,3.4,-3.1,30.27,North,351,3.0,12.0,74,0.00,,,0.00,327.0,meteohub,2013-01-31 17:24:00,
2013-01-31 11:30:00,3.6,-3.1,30.27,North,355,7.0,17.0,73,0.00,,,0.00,325.0,meteohub,2013-01-31 17:30:00,
2013-01-31 11:36:00,3.0,-3.6,30.27,WNW,300,5.0,17.0,73,0.00,,,0.00,308.0,meteohub,2013-01-31 17:36:00,
2013-01-31 11:42:00,3.4,-2.7,30.28,NNW,335,2.0,17.0,75,0.00,,,0.00,292.0,meteohub,2013-01-31 17:42:00,
2013-01-31 11:48:00,3.6,-2.6,30.27,NW,315,4.0,17.0,75,0.00,,,0.00,295.0,meteohub,2013-01-31 17:48:00,
2013-01-31 11:54:00,3.6,-2.4,30.28,NNW,332,7.0,17.0,76,0.00,,,0.00,272.0,meteohub,2013-01-31 17:54:00,
2013-01-31 12:01:00,3.4,-2.6,30.28,NW,311,2.0,17.0,76,0.00,,,0.00,272.0,meteohub,2013-01-31 18:01:00,
2013-01-31 12:07:00,3.4,-2.6,30.29,NNW,342,6.0,17.0,76,0.00,,,0.00,297.0,meteohub,2013-01-31 18:07:00,
2013-01-31 12:13:00,3.2,-3.3,30.29,North,5,4.0,15.0,74,0.00,,,0.00,387.0,meteohub,2013-01-31 18:13:00,
2013-01-31 12:19:00,3.6,-2.9,30.29,NW,321,3.0,15.0,74,0.00,,,0.00,390.0,meteohub,2013-01-31 18:19:00,
2013-01-31 12:25:00,3.7,-2.7,30.29,NW,325,1.0,15.0,74,0.00,,,0.00,371.0,meteohub,2013-01-31 18:25:00,
2013-01-31 12:32:00,3.9,-2.6,30.29,North,355,4.0,15.0,74,0.00,,,0.00,299.0,meteohub,2013-01-31 18:32:00,
2013-01-31 12:38:00,4.3,-2.7,30.29,West,277,3.0,16.0,72,0.00,,,0.00,278.0,meteohub,2013-01-31 18:38:00,
2013-01-31 12:44:00,3.9,-3.5,30.29,West,271,0.0,16.0,71,0.00,,,0.00,262.0,meteohub,2013-01-31 18:44:00,
2013-01-31 12:50:00,3.9,-3.1,30.30,WNW,284,10.0,16.0,72,0.00,,,0.00,276.0,meteohub,2013-01-31 18:50:00,
2013-01-31 12:56:00,3.9,-3.1,30.30,NNE,20,2.0,16.0,72,0.00,,,0.00,287.0,meteohub,2013-01-31 18:56:00,
2013-01-31 13:02:00,3.9,-3.5,30.30,WNW,300,2.0,16.0,71,0.00,,,0.00,279.0,meteohub,2013-01-31 19:02:00,
2013-01-31 13:07:00,4.1,-2.9,30.30,West,259,6.0,16.0,72,0.00,,,0.00,253.0,meteohub,2013-01-31 19:07:00,
2013-01-31 13:13:00,3.7,-3.8,30.30,NNW,341,4.0,15.0,70,0.00,,,0.00,253.0,meteohub,2013-01-31 19:13:00,
2013-01-31 13:19:00,3.9,-2.7,30.30,NW,309,4.0,15.0,73,0.00,,,0.00,346.0,meteohub,2013-01-31 19:19:00,
2013-01-31 13:26:00,4.5,-2.2,30.30,West,273,5.0,15.0,73,0.00,,,0.00,403.0,meteohub,2013-01-31 19:26:00,
2013-01-31 13:32:00,4.6,-2.7,30.31,North,349,4.0,15.0,71,0.00,,,0.00,373.0,meteohub,2013-01-31 19:32:00,
2013-01-31 13:38:00,4.6,-2.4,30.30,NNW,340,6.0,14.0,72,0.00,,,0.00,325.0,meteohub,2013-01-31 19:38:00,
2013-01-31 13:44:00,4.1,-3.3,30.31,SW,232,4.0,14.0,71,0.00,,,0.00,264.0,meteohub,2013-01-31 19:44:00,
2013-01-31 13:50:00,3.9,-2.7,30.31,NW,305,3.0,14.0,73,0.00,,,0.00,274.0,meteohub,2013-01-31 19:50:00,
2013-01-31 13:56:00,4.3,-2.4,30.31,West,275,4.0,16.0,73,0.00,,,0.00,318.0,meteohub,2013-01-31 19:56:00,
2013-01-31 14:02:00,4.1,-3.3,30.32,WNW,289,3.0,16.0,71,0.00,,,0.00,269.0,meteohub,2013-01-31 20:02:00,
2013-01-31 14:07:00,4.6,-2.0,30.32,WNW,288,7.0,16.0,73,0.00,,,0.00,341.0,meteohub,2013-01-31 20:07:00,
2013-01-31 14:13:00,4.5,-2.6,30.32,West,273,13.0,21.0,72,0.00,,,0.00,359.0,meteohub,2013-01-31 20:13:00,
2013-01-31 14:19:00,4.5,-2.6,30.32,NW,317,2.0,21.0,72,0.00,,,0.00,279.0,meteohub,2013-01-31 20:19:00,
2013-01-31 14:25:00,4.5,-2.9,30.32,WNW,288,7.0,21.0,71,0.00,,,0.00,246.0,meteohub,2013-01-31 20:25:00,
2013-01-31 14:32:00,4.6,-2.7,30.32,NNW,346,2.0,18.0,71,0.00,,,0.00,272.0,meteohub,2013-01-31 20:32:00,
2013-01-31 14:38:00,4.6,-2.9,30.33,NW,323,3.0,18.0,70,0.00,,,0.00,269.0,meteohub,2013-01-31 20:38:00,
2013-01-31 14:44:00,4.3,-3.1,30.33,West,281,13.0,18.0,71,0.00,,,0.00,262.0,meteohub,2013-01-31 20:44:00,
2013-01-31 14:50:00,4.3,-2.7,30.33,WSW,251,1.0,18.0,72,0.00,,,0.00,220.0,meteohub,2013-01-31 20:50:00,
2013-01-31 14:56:00,4.3,-2.4,30.34,NNW,331,5.0,22.0,73,0.00,,,0.00,172.0,meteohub,2013-01-31 20:56:00,
2013-01-31 15:02:00,4.3,-2.4,30.34,WSW,252,5.0,22.0,73,0.00,,,0.00,181.0,meteohub,2013-01-31 21:02:00,
2013-01-31 15:07:00,4.1,-2.9,30.35,SW,227,6.0,22.0,72,0.00,,,0.00,183.0,meteohub,2013-01-31 21:07:00,
2013-01-31 15:13:00,4.1,-2.9,30.35,West,269,1.0,13.0,72,0.00,,,0.00,141.0,meteohub,2013-01-31 21:13:00,
2013-01-31 15:19:00,4.1,-2.6,30.35,WNW,298,1.0,13.0,73,0.00,,,0.00,128.0,meteohub,2013-01-31 21:19:00,
2013-01-31 15:25:00,3.9,-3.1,30.35,West,275,7.0,13.0,72,0.00,,,0.00,113.0,meteohub,2013-01-31 21:25:00,
2013-01-31 15:31:00,3.7,-2.9,30.36,WNW,298,5.0,13.0,73,0.00,,,0.00,113.0,meteohub,2013-01-31 21:31:00,
2013-01-31 15:38:00,3.6,-3.5,30.36,NNW,344,11.0,13.0,72,0.00,,,0.00,120.0,meteohub,2013-01-31 21:38:00,
2013-01-31 15:44:00,3.6,-3.6,30.36,North,351,2.0,13.0,71,0.00,,,0.00,125.0,meteohub,2013-01-31 21:44:00,
2013-01-31 15:50:00,3.6,-3.5,30.36,WNW,301,3.0,13.0,72,0.00,,,0.00,139.0,meteohub,2013-01-31 21:50:00,
2013-01-31 15:56:00,3.6,-3.5,30.36,WNW,299,5.0,14.0,72,0.00,,,0.00,123.0,meteohub,2013-01-31 21:56:00,
2013-01-31 16:02:00,3.6,-3.6,30.37,NW,323,7.0,14.0,71,0.00,,,0.00,111.0,meteohub,2013-01-31 22:02:00,
2013-01-31 16:08:00,3.6,-4.4,30.38,NW,317,4.0,14.0,69,0.00,,,0.00,98.0,meteohub,2013-01-31 22:08:00,
2013-01-31 16:15:00,3.6,-4.0,30.38,WNW,301,2.0,16.0,70,0.00,,,0.00,77.0,meteohub,2013-01-31 22:15:00,
2013-01-31 16:21:00,3.4,-4.2,30.38,WNW,288,12.0,16.0,70,0.00,,,0.00,56.0,meteohub,2013-01-31 22:21:00,
2013-01-31 16:27:00,3.0,-4.9,30.39,WSW,239,11.0,16.0,69,0.00,,,0.00,42.0,meteohub,2013-01-31 22:27:00,
2013-01-31 16:33:00,2.8,-4.7,30.39,West,277,6.0,18.0,70,0.00,,,0.00,51.0,meteohub,2013-01-31 22:33:00,
2013-01-31 16:39:00,2.7,-4.9,30.40,North,0,9.0,18.0,70,0.00,,,0.00,30.0,meteohub,2013-01-31 22:39:00,
2013-01-31 16:46:00,2.5,-5.4,30.40,NNE,24,10.0,18.0,69,0.00,,,0.00,26.0,meteohub,2013-01-31 22:46:00,
2013-01-31 16:52:00,2.3,-5.6,30.40,West,263,6.0,18.0,69,0.00,,,0.00,25.0,meteohub,2013-01-31 22:52:00,
2013-01-31 16:58:00,2.1,-5.4,30.40,SW,221,3.0,18.0,70,0.00,,,0.00,21.0,meteohub,2013-01-31 22:58:00,
2013-01-31 17:04:00,2.1,-5.6,30.41,North,0,5.0,18.0,69,0.00,,,0.00,16.0,meteohub,2013-01-31 23:04:00,
2013-01-31 17:10:00,1.9,-5.8,30.41,NW,321,13.0,18.0,69,0.00,,,0.00,14.0,meteohub,2013-01-31 23:10:00,
2013-01-31 17:17:00,1.9,-5.8,30.41,WNW,284,1.0,14.0,69,0.00,,,0.00,11.0,meteohub,2013-01-31 23:17:00,
2013-01-31 17:23:00,1.8,-5.8,30.42,NW,316,3.0,14.0,70,0.00,,,0.00,7.0,meteohub,2013-01-31 23:23:00,
2013-01-31 17:29:00,1.8,-6.0,30.42,NW,323,3.0,14.0,69,0.00,,,0.00,0.0,meteohub,2013-01-31 23:29:00,
2013-01-31 17:35:00,1.8,-6.0,30.43,NNW,331,8.0,15.0,69,0.00,,,0.00,0.0,meteohub,2013-01-31 23:35:00,
2013-01-31 17:41:00,1.8,-6.0,30.43,NNW,336,5.0,15.0,69,0.00,,,0.00,0.0,meteohub,2013-01-31 23:41:00,
2013-01-31 17:47:00,1.6,-6.2,30.43,NW,316,1.0,15.0,69,0.00,,,0.00,0.0,meteohub,2013-01-31 23:47:00,
2013-01-31 17:52:00,1.6,-6.0,30.43,NNW,340,1.0,14.0,70,0.00,,,0.00,0.0,meteohub,2013-01-31 23:52:00,
2013-01-31 17:58:00,1.4,-6.3,30.43,NNW,332,3.0,14.0,69,0.00,,,0.00,0.0,meteohub,2013-01-31 23:58:00,
2013-01-31 18:04:00,1.2,-6.3,30.44,NNW,328,6.0,14.0,70,0.00,,,0.00,0.0,meteohub,2013-02-01 00:04:00,
2013-01-31 18:10:00,1.0,-6.5,30.44,NW,316,3.0,14.0,70,0.00,,,0.00,0.0,meteohub,2013-02-01 00:10:00,
2013-01-31 18:16:00,1.0,-6.7,30.45,West,279,14.0,16.0,69,0.00,,,0.00,0.0,meteohub,2013-02-01 00:16:00,
2013-01-31 18:23:00,1.0,-6.5,30.45,WNW,292,4.0,16.0,70,0.00,,,0.00,0.0,meteohub,2013-02-01 00:23:00,
2013-01-31 18:29:00,0.9,-6.7,30.45,North,5,7.0,16.0,70,0.00,,,0.00,0.0,meteohub,2013-02-01 00:29:00,
2013-01-31 18:35:00,0.9,-6.7,30.45,NW,307,3.0,16.0,70,0.00,,,0.00,0.0,meteohub,2013-02-01 00:35:00,
2013-01-31 18:41:00,0.7,-6.9,30.45,NNE,21,6.0,16.0,70,0.00,,,0.00,0.0,meteohub,2013-02-01 00:41:00,
2013-01-31 18:47:00,0.7,-7.1,30.46,WNW,291,5.0,18.0,69,0.00,,,0.00,0.0,meteohub,2013-02-01 00:47:00,
2013-01-31 18:52:00,0.5,-6.9,30.46,NW,321,6.0,18.0,70,0.00,,,0.00,0.0,meteohub,2013-02-01 00:52:00,
2013-01-31 18:58:00,0.3,-7.1,30.46,NNW,336,4.0,18.0,70,0.00,,,0.00,0.0,meteohub,2013-02-01 00:58:00,
2013-01-31 19:04:00,0.3,-7.1,30.46,WSW,250,3.0,18.0,70,0.00,,,0.00,0.0,meteohub,2013-02-01 01:04:00,
2013-01-31 19:10:00,0.1,-7.2,30.47,NW,323,6.0,11.0,70,0.00,,,0.00,0.0,meteohub,2013-02-01 01:10:00,
2013-01-31 19:16:00,0.1,-7.1,30.48,North,355,5.0,11.0,71,0.00,,,0.00,0.0,meteohub,2013-02-01 01:16:00,
2013-01-31 19:22:00,0.0,-7.4,30.48,WNW,302,12.0,12.0,70,0.00,,,0.00,0.0,meteohub,2013-02-01 01:22:00,
2013-01-31 19:29:00,-0.2,-7.6,30.48,ESE,105,0.0,15.0,70,0.00,,,0.00,0.0,meteohub,2013-02-01 01:29:00,
2013-01-31 19:35:00,-0.6,-8.3,30.48,North,349,4.0,15.0,69,0.00,,,0.00,0.0,meteohub,2013-02-01 01:35:00,
2013-01-31 19:41:00,-0.6,-8.0,30.49,NNW,342,3.0,26.0,70,0.00,,,0.00,0.0,meteohub,2013-02-01 01:41:00,
2013-01-31 19:47:00,-0.8,-8.1,30.48,WNW,299,6.0,26.0,70,0.00,,,0.00,0.0,meteohub,2013-02-01 01:47:00,
2013-01-31 19:53:00,-0.8,-8.1,30.49,NW,320,1.0,26.0,70,0.00,,,0.00,0.0,meteohub,2013-02-01 01:53:00,
2013-01-31 19:59:00,-0.9,-8.1,30.49,West,276,3.0,13.0,71,0.00,,,0.00,0.0,meteohub,2013-02-01 01:59:00,
2013-01-31 20:06:00,-1.1,-8.0,30.50,WNW,284,5.0,13.0,72,0.00,,,0.00,0.0,meteohub,2013-02-01 02:06:00,
2013-01-31 20:12:00,-1.5,-8.3,30.50,West,259,3.0,10.0,72,0.00,,,0.00,0.0,meteohub,2013-02-01 02:12:00,
2013-01-31 20:18:00,-1.5,-8.3,30.50,WNW,298,3.0,10.0,72,0.00,,,0.00,0.0,meteohub,2013-02-01 02:18:00,
2013-01-31 20:24:00,-1.7,-8.5,30.51,NW,322,8.0,10.0,72,0.00,,,0.00,0.0,meteohub,2013-02-01 02:24:00,
2013-01-31 20:30:00,-1.8,-8.7,30.51,NNW,344,2.0,10.0,72,0.00,,,0.00,0.0,meteohub,2013-02-01 02:30:00,
2013-01-31 20:36:00,-1.8,-8.3,30.51,NW,321,3.0,10.0,73,0.00,,,0.00,0.0,meteohub,2013-02-01 02:36:00,
2013-01-31 20:42:00,-2.0,-8.5,30.51,West,266,1.0,10.0,73,0.00,,,0.00,0.0,meteohub,2013-02-01 02:42:00,
2013-01-31 20:49:00,-2.2,-9.0,30.52,NW,316,9.0,10.0,72,0.00,,,0.00,0.0,meteohub,2013-02-01 02:49:00,
2013-01-31 20:55:00,-2.4,-9.2,30.52,NNE,24,1.0,12.0,72,0.00,,,0.00,0.0,meteohub,2013-02-01 02:55:00,
2013-01-31 21:01:00,-2.6,-9.4,30.52,WNW,289,9.0,10.0,72,0.00,,,0.00,0.0,meteohub,2013-02-01 03:01:00,
2013-01-31 21:07:00,-2.7,-9.6,30.53,WNW,284,7.0,10.0,72,0.00,,,0.00,0.0,meteohub,2013-02-01 03:07:00,
2013-01-31 21:13:00,-2.9,-9.8,30.53,West,281,5.0,12.0,72,0.00,,,0.00,0.0,meteohub,2013-02-01 03:13:00,
2013-01-31 21:19:00,-3.1,-9.6,30.53,NW,317,4.0,12.0,73,0.00,,,0.00,0.0,meteohub,2013-02-01 03:19:00,
2013-01-31 21:25:00,-3.3,-10.1,30.53,West,280,4.0,11.0,72,0.00,,,0.00,0.0,meteohub,2013-02-01 03:25:00,
2013-01-31 21:32:00,-3.5,-10.3,30.53,NW,312,1.0,11.0,72,0.00,,,0.00,0.0,meteohub,2013-02-01 03:32:00,
2013-01-31 21:38:00,-3.6,-10.1,30.53,NNW,338,1.0,12.0,73,0.00,,,0.00,0.0,meteohub,2013-02-01 03:38:00,
2013-01-31 21:44:00,-3.6,-10.1,30.53,NNW,336,3.0,14.0,73,0.00,,,0.00,0.0,meteohub,2013-02-01 03:44:00,
2013-01-31 21:50:00,-3.8,-10.5,30.54,NNW,329,4.0,14.0,72,0.00,,,0.00,0.0,meteohub,2013-02-01 03:50:00,
2013-01-31 21:57:00,-4.0,-10.7,30.54,WSW,241,6.0,12.0,72,0.00,,,0.00,0.0,meteohub,2013-02-01 03:57:00,
2013-01-31 22:02:00,-4.2,-10.8,30.54,WNW,299,1.0,10.0,72,0.00,,,0.00,0.0,meteohub,2013-02-01 04:02:00,
2013-01-31 22:07:00,-4.2,-10.8,30.54,NNW,328,3.0,9.0,72,0.00,,,0.00,0.0,meteohub,2013-02-01 04:07:00,
2013-01-31 22:13:00,-4.4,-10.8,30.55,NNW,340,2.0,17.0,73,0.00,,,0.00,0.0,meteohub,2013-02-01 04:13:00,
2013-01-31 22:19:00,-4.4,-11.0,30.55,North,5,1.0,17.0,72,0.00,,,0.00,0.0,meteohub,2013-02-01 04:19:00,
2013-01-31 22:25:00,-4.5,-11.2,30.55,NW,326,4.0,13.0,72,0.00,,,0.00,0.0,meteohub,2013-02-01 04:25:00,
2013-01-31 22:31:00,-4.5,-11.6,30.55,NNW,328,7.0,13.0,71,0.00,,,0.00,0.0,meteohub,2013-02-01 04:31:00,
2013-01-31 22:38:00,-4.7,-11.7,30.56,NW,306,4.0,11.0,71,0.00,,,0.00,0.0,meteohub,2013-02-01 04:38:00,
2013-01-31 22:44:00,-4.9,-11.9,30.56,NW,313,1.0,11.0,71,0.00,,,0.00,0.0,meteohub,2013-02-01 04:44:00,
2013-01-31 22:50:00,-5.1,-11.7,30.56,NNW,331,1.0,11.0,72,0.00,,,0.00,0.0,meteohub,2013-02-01 04:50:00,
2013-01-31 22:56:00,-5.1,-11.7,30.56,NW,311,1.0,8.0,72,0.00,,,0.00,0.0,meteohub,2013-02-01 04:56:00,
2013-01-31 23:00:00,-5.3,-11.7,30.56,NNW,339,1.0,9.0,73,0.00,,,0.00,0.0,meteohub,2013-02-01 05:00:00,
2013-01-31 23:02:00,-5.3,-11.7,30.56,NW,318,3.0,9.0,73,0.00,,,0.00,0.0,meteohub,2013-02-01 05:02:00,
2013-01-31 23:03:00,-5.3,-11.7,30.56,NW,318,0.0,9.0,73,0.00,,,0.00,0.0,meteohub,2013-02-01 05:03:00,
2013-01-31 23:09:00,-5.3,-11.9,30.57,West,277,1.0,10.0,72,0.00,,,0.00,0.0,meteohub,2013-02-01 05:09:00,
2013-01-31 23:11:00,-5.3,-11.9,30.57,WSW,248,1.0,10.0,72,0.00,,,0.00,0.0,meteohub,2013-02-01 05:11:00,
2013-01-31 23:17:00,-5.4,-12.5,30.57,NW,314,2.0,13.0,71,0.00,,,0.00,0.0,meteohub,2013-02-01 05:17:00,
2013-01-31 23:23:00,-5.6,-12.6,30.57,NW,304,0.0,13.0,71,0.00,,,0.00,0.0,meteohub,2013-02-01 05:23:00,
2013-01-31 23:29:00,-5.6,-12.6,30.58,WNW,302,1.0,13.0,71,0.00,,,0.00,0.0,meteohub,2013-02-01 05:29:00,
2013-01-31 23:35:00,-5.8,-12.5,30.58,West,280,2.0,15.0,72,0.00,,,0.00,0.0,meteohub,2013-02-01 05:35:00,
2013-01-31 23:42:00,-6.0,-12.6,30.58,NW,306,2.0,15.0,72,0.00,,,0.00,0.0,meteohub,2013-02-01 05:42:00,
2013-01-31 23:47:00,-6.0,-13.0,30.58,West,274,3.0,9.0,71,0.00,,,0.00,0.0,meteohub,2013-02-01 05:47:00,
2013-01-31 23:52:00,-6.2,-13.2,30.58,WNW,288,2.0,9.0,71,0.00,,,0.00,0.0,meteohub,2013-02-01 05:52:00,
2013-01-31 23:58:00,-6.2,-13.2,30.58,West,273,6.0,7.0,71,0.00,,,0.00,0.0,meteohub,2013-02-01 05:58:00,